Terminal Aerodrome Forecast
Issued by NWS

Home | Current Version | Previous Version | Text Only | Print | Product List | Glossary Off
Versions: 1 2 3 4 5 6 7 8 9 10 11 12 13 14 15 16 17 18 19 20 21 22 23 24 25 26 27 28

921
FTUS43 KABR 141837 AAA
TAFATY
TAF AMD
KATY 141837Z 1419/1518 24014G21KT 2SM -SN BR SCT006 OVC025
     FM142000 29014G23KT 3SM -SN BLSN OVC015
     FM142200 32017G24KT 5SM BLSN VCSH BKN015
     FM150000 34019G27KT P6SM BKN015
     FM150400 34017G24KT P6SM SCT040
     FM151700 33016G24KT P6SM SCT030=

USA.gov is the U.S. government's official web portal to all federal, state and local government web resources and services.